createdAt,value
2018-03-31T00:01:19.696Z,99699.89
2018-03-31T00:03:46.782Z,99696.76
2018-03-31T00:06:13.805Z,99700.39
2018-03-31T00:08:40.844Z,99700.40
2018-03-31T00:11:07.930Z,99707.48
2018-03-31T00:13:35.015Z,99700.52
2018-03-31T00:16:02.168Z,99706.82
2018-03-31T00:18:29.242Z,99700.55
2018-03-31T00:20:56.258Z,99698.44
2018-03-31T00:23:23.342Z,99704.46
2018-03-31T00:25:50.431Z,99704.14
2018-03-31T00:28:17.462Z,99704.41
2018-03-31T00:30:44.488Z,99705.02
2018-03-31T00:33:11.574Z,99698.70
2018-03-31T00:35:38.590Z,99697.54
2018-03-31T00:38:05.607Z,99690.91
2018-03-31T00:40:32.637Z,99693.32
2018-03-31T00:42:59.662Z,99689.61
2018-03-31T00:45:26.736Z,99685.97
2018-03-31T00:47:53.817Z,99684.03
2018-03-31T00:50:20.954Z,99679.70
2018-03-31T00:52:48.029Z,99674.90
2018-03-31T00:55:15.074Z,99676.06
2018-03-31T00:57:42.163Z,99672.91
2018-03-31T01:00:09.240Z,99673.36
2018-03-31T01:02:36.274Z,99666.56
2018-03-31T01:05:03.291Z,99663.94
2018-03-31T01:07:30.366Z,99655.91
2018-03-31T01:09:57.412Z,99662.64
2018-03-31T01:12:24.427Z,99659.52
2018-03-31T01:14:51.458Z,99650.52
2018-03-31T01:17:18.486Z,99646.06
2018-03-31T01:19:45.506Z,99636.41
2018-03-31T01:22:12.523Z,99624.03
2018-03-31T01:24:39.682Z,99624.41
2018-03-31T01:27:06.721Z,99625.98
2018-03-31T01:29:33.806Z,99636.56
2018-03-31T01:32:00.835Z,99635.41
2018-03-31T01:34:27.845Z,99637.70
2018-03-31T01:36:54.877Z,99625.63
2018-03-31T01:39:21.897Z,99631.20
2018-03-31T01:41:48.944Z,99628.28
2018-03-31T01:44:15.966Z,99627.98
2018-03-31T01:46:42.994Z,99616.90
2018-03-31T01:49:10.018Z,99622.50
2018-03-31T01:51:37.103Z,99615.22
2018-03-31T01:54:04.126Z,99618.63
2018-03-31T01:56:31.141Z,99619.20
2018-03-31T01:58:58.162Z,99624.71
2018-03-31T02:01:25.242Z,99628.41
2018-03-31T02:03:52.330Z,99630.37
2018-03-31T02:06:19.424Z,99623.78
2018-03-31T02:08:46.569Z,99621.98
2018-03-31T02:11:13.585Z,99621.16
2018-03-31T02:13:40.604Z,99620.25
2018-03-31T02:16:07.638Z,99617.59
2018-03-31T02:18:34.670Z,99613.84
2018-03-31T02:21:01.755Z,99613.20
2018-03-31T02:23:28.848Z,99614.03
2018-03-31T02:25:55.975Z,99605.20
2018-03-31T02:28:22.994Z,99608.36
2018-03-31T02:30:50.071Z,99616.20
2018-03-31T02:33:17.138Z,99616.42
2018-03-31T02:35:44.216Z,99616.36
2018-03-31T02:38:11.324Z,99624.16
2018-03-31T02:40:38.382Z,99624.41
2018-03-31T02:43:05.459Z,99624.12
2018-03-31T02:45:32.542Z,99622.03
2018-03-31T02:47:59.570Z,99622.69
2018-03-31T02:50:26.598Z,99626.84
2018-03-31T02:52:53.618Z,99626.67
2018-03-31T02:55:20.650Z,99623.88
2018-03-31T02:57:47.671Z,99628.62
2018-03-31T03:00:14.803Z,99624.80
2018-03-31T03:02:41.844Z,99620.63
2018-03-31T03:05:08.931Z,99615.20
2018-03-31T03:07:36.014Z,99609.70
2018-03-31T03:10:03.039Z,99613.06
2018-03-31T03:12:30.066Z,99606.36
2018-03-31T03:14:57.083Z,99602.78
2018-03-31T03:17:24.116Z,99609.11
2018-03-31T03:19:51.147Z,99603.01
2018-03-31T03:22:18.223Z,99601.34
2018-03-31T03:24:45.358Z,99606.31
2018-03-31T03:27:12.443Z,99601.20
2018-03-31T03:29:39.462Z,99593.36
2018-03-31T03:32:06.482Z,99595.40
2018-03-31T03:34:33.512Z,99597.92
2018-03-31T03:37:00.616Z,99600.52
2018-03-31T03:39:27.712Z,99604.92
2018-03-31T03:41:54.760Z,99599.63
2018-03-31T03:44:21.782Z,99594.56
2018-03-31T03:46:48.802Z,99596.97
2018-03-31T03:49:15.882Z,99598.66
2018-03-31T03:51:42.954Z,99588.95
2018-03-31T03:54:10.029Z,99593.60
2018-03-31T03:56:37.114Z,99598.28
2018-03-31T03:59:04.134Z,99597.37
2018-03-31T04:01:31.153Z,99591.34
2018-03-31T04:03:58.178Z,99589.83
2018-03-31T04:06:25.276Z,99591.75
2018-03-31T04:08:52.361Z,99587.00
2018-03-31T04:11:19.397Z,99592.05
2018-03-31T04:13:46.426Z,99579.39
2018-03-31T04:16:13.514Z,99583.11
2018-03-31T04:18:40.578Z,99582.42
2018-03-31T04:21:07.605Z,99583.63
2018-03-31T04:23:34.621Z,99579.45
2018-03-31T04:26:01.754Z,99580.89
2018-03-31T04:28:28.787Z,99583.78
2018-03-31T04:30:55.838Z,99586.70
2018-03-31T04:33:22.870Z,99581.26
2018-03-31T04:35:49.891Z,99580.60
2018-03-31T04:38:16.980Z,99579.10
2018-03-31T04:40:44.058Z,99585.78
2018-03-31T04:43:11.199Z,99590.89
2018-03-31T04:45:38.228Z,99597.02
2018-03-31T04:48:05.311Z,99602.80
2018-03-31T04:50:32.350Z,99608.08
2018-03-31T04:52:59.472Z,99604.37
2018-03-31T04:55:26.501Z,99603.64
2018-03-31T04:57:53.527Z,99605.31
2018-03-31T05:00:20.663Z,99601.09
2018-03-31T05:02:47.734Z,99606.70
2018-03-31T05:05:14.795Z,99614.93
2018-03-31T05:07:41.822Z,99617.13
2018-03-31T05:10:08.908Z,99613.89
2018-03-31T05:12:35.982Z,99608.33
2018-03-31T05:15:03.015Z,99615.23
2018-03-31T05:17:30.099Z,99608.50
2018-03-31T05:19:57.175Z,99594.88
2018-03-31T05:22:24.239Z,99594.42
2018-03-31T05:24:51.266Z,99603.09
2018-03-31T05:27:18.334Z,99597.52
2018-03-31T05:29:45.422Z,99599.10
2018-03-31T05:32:12.441Z,99597.41
2018-03-31T05:34:39.516Z,99595.95
2018-03-31T05:37:06.616Z,99594.67
2018-03-31T05:39:33.652Z,99593.42
2018-03-31T05:42:00.682Z,99597.02
2018-03-31T05:44:27.803Z,99602.07
2018-03-31T05:46:54.847Z,99607.41
2018-03-31T05:49:21.873Z,99609.56
2018-03-31T05:51:48.912Z,99595.42
2018-03-31T05:54:16.011Z,99592.58
2018-03-31T05:56:43.031Z,99592.86
2018-03-31T05:59:10.061Z,99587.20
2018-03-31T06:01:37.139Z,99584.01
2018-03-31T06:04:04.284Z,99593.44
2018-03-31T06:06:31.367Z,99589.02
2018-03-31T06:08:58.498Z,99594.10
2018-03-31T06:11:25.525Z,99589.90
2018-03-31T06:13:52.606Z,99603.27
2018-03-31T06:16:19.708Z,99595.53
2018-03-31T06:18:46.729Z,99593.80
2018-03-31T06:21:13.865Z,99593.34
2018-03-31T06:23:40.947Z,99591.45
2018-03-31T06:26:07.958Z,99593.87
2018-03-31T06:28:35.004Z,99593.38
2018-03-31T06:31:02.030Z,99592.17
2018-03-31T06:33:29.122Z,99596.64
2018-03-31T06:35:56.207Z,99606.02
2018-03-31T06:38:23.351Z,99599.67
2018-03-31T06:40:50.441Z,99616.12
2018-03-31T06:43:17.476Z,99614.61
2018-03-31T06:45:44.571Z,99617.78
2018-03-31T06:48:11.586Z,99619.93
2018-03-31T06:50:38.620Z,99612.08
2018-03-31T06:53:05.646Z,99612.44
2018-03-31T06:55:32.728Z,99620.70
2018-03-31T06:57:59.816Z,99621.77
2018-03-31T07:00:26.898Z,99619.75
2018-03-31T07:02:53.933Z,99613.94
2018-03-31T07:05:20.967Z,99616.97
2018-03-31T07:07:48.063Z,99618.59
2018-03-31T07:10:15.082Z,99621.69
2018-03-31T07:12:42.150Z,99616.27
2018-03-31T07:15:09.174Z,99615.53
2018-03-31T07:17:36.259Z,99618.48
2018-03-31T07:20:03.382Z,99626.73
2018-03-31T07:22:30.468Z,99624.95
2018-03-31T07:24:57.505Z,99624.67
2018-03-31T07:27:24.558Z,99620.96
2018-03-31T07:29:51.694Z,99614.56
2018-03-31T07:32:18.718Z,99618.13
2018-03-31T07:34:45.815Z,99611.95
2018-03-31T07:37:12.842Z,99609.16
2018-03-31T07:39:39.930Z,99611.18
2018-03-31T07:42:06.954Z,99603.45
2018-03-31T07:44:33.988Z,99608.12
2018-03-31T07:47:01.073Z,99608.80
2018-03-31T07:49:28.099Z,99601.64
2018-03-31T07:51:55.196Z,99604.33
2018-03-31T07:54:22.230Z,99607.57
2018-03-31T07:56:49.265Z,99602.77
2018-03-31T07:59:16.359Z,99605.16
2018-03-31T08:01:43.437Z,99602.47
2018-03-31T08:04:10.568Z,99610.78
2018-03-31T08:06:37.590Z,99600.52
2018-03-31T08:09:04.666Z,99601.61
2018-03-31T08:11:31.757Z,99590.25
2018-03-31T08:13:58.812Z,99595.81
2018-03-31T08:16:25.907Z,99593.25
2018-03-31T08:18:53.582Z,99584.73
2018-03-31T08:21:20.679Z,99581.27
2018-03-31T08:23:47.780Z,99576.82
2018-03-31T08:26:14.869Z,99573.48
2018-03-31T08:28:41.906Z,99562.28
2018-03-31T08:31:08.935Z,99550.26
2018-03-31T08:33:35.958Z,99547.23
2018-03-31T08:36:03.034Z,99539.52
2018-03-31T08:38:30.103Z,99535.01
2018-03-31T08:40:57.136Z,99528.95
2018-03-31T08:43:24.163Z,99530.63
2018-03-31T08:45:51.251Z,99524.33
2018-03-31T08:48:18.289Z,99520.12
2018-03-31T08:50:45.318Z,99509.94
2018-03-31T08:53:12.342Z,99500.08
2018-03-31T08:55:39.413Z,99501.06
2018-03-31T08:58:06.488Z,99493.97
2018-03-31T09:00:33.557Z,99488.61
2018-03-31T09:03:00.587Z,99487.11
2018-03-31T09:05:27.613Z,99485.99
2018-03-31T09:07:54.707Z,99478.03
2018-03-31T09:10:21.729Z,99454.28
2018-03-31T09:12:48.811Z,99447.18
2018-03-31T09:15:15.891Z,99444.66
2018-03-31T09:17:42.912Z,99442.83
2018-03-31T09:20:09.938Z,99436.14
2018-03-31T09:22:36.963Z,99439.26
2018-03-31T09:25:04.098Z,99448.43
2018-03-31T09:27:31.183Z,99451.45
2018-03-31T09:29:58.275Z,99460.92
2018-03-31T09:32:25.355Z,99465.38
2018-03-31T09:34:52.375Z,99458.16
2018-03-31T09:37:19.403Z,99465.36
2018-03-31T09:39:46.490Z,99463.06
2018-03-31T09:42:13.588Z,99466.33
2018-03-31T09:44:40.611Z,99459.78
2018-03-31T09:47:07.700Z,99463.30
2018-03-31T09:49:34.720Z,99458.75
2018-03-31T09:52:01.806Z,99459.45
2018-03-31T09:54:28.895Z,99453.88
2018-03-31T09:56:55.923Z,99462.69
2018-03-31T09:59:22.958Z,99460.72
2018-03-31T10:01:49.976Z,99460.47
2018-03-31T10:04:17.064Z,99456.30
2018-03-31T10:06:44.090Z,99449.77
2018-03-31T10:09:11.110Z,99451.83
2018-03-31T10:11:38.199Z,99449.92
2018-03-31T10:14:05.279Z,99440.88
2018-03-31T10:16:32.371Z,99439.58
2018-03-31T10:18:59.459Z,99434.30
2018-03-31T10:21:26.529Z,99434.50
2018-03-31T10:23:53.611Z,99428.86
2018-03-31T10:26:20.699Z,99419.50
2018-03-31T10:28:47.786Z,99414.17
2018-03-31T10:31:14.806Z,99415.80
2018-03-31T10:33:41.842Z,99413.03
2018-03-31T10:36:08.918Z,99416.41
2018-03-31T10:38:36.062Z,99410.48
2018-03-31T10:41:04.017Z,99409.33
2018-03-31T10:43:31.037Z,99395.56
2018-03-31T10:45:59.292Z,99395.92
2018-03-31T10:48:26.391Z,99387.20
2018-03-31T10:50:53.443Z,99380.52
2018-03-31T10:53:20.478Z,99373.36
2018-03-31T10:55:47.734Z,99375.70
2018-03-31T10:58:14.750Z,99369.17
2018-03-31T11:00:41.788Z,99374.45
2018-03-31T11:03:08.888Z,99373.47
2018-03-31T11:05:36.020Z,99362.84
2018-03-31T11:08:03.043Z,99362.18
2018-03-31T11:10:30.063Z,99359.99
2018-03-31T11:12:57.166Z,99365.61
2018-03-31T11:15:24.311Z,99357.82
2018-03-31T11:17:51.331Z,99355.80
2018-03-31T11:20:18.363Z,99350.03
2018-03-31T11:22:45.389Z,99346.05
2018-03-31T11:25:12.475Z,99339.04
2018-03-31T11:27:39.563Z,99338.54
2018-03-31T11:30:06.640Z,99341.65
2018-03-31T11:32:33.676Z,99327.29
2018-03-31T11:35:00.703Z,99312.90
2018-03-31T11:37:27.732Z,99319.95
2018-03-31T11:39:54.810Z,99310.32
2018-03-31T11:42:21.869Z,99306.24
2018-03-31T11:44:48.894Z,99296.69
2018-03-31T11:47:16.039Z,99296.19
2018-03-31T11:49:43.130Z,99284.87
2018-03-31T11:52:10.155Z,99284.11
2018-03-31T11:54:37.256Z,99285.19
2018-03-31T11:57:04.285Z,99293.91
2018-03-31T11:59:31.312Z,99290.11
2018-03-31T12:01:58.378Z,99284.06
2018-03-31T12:04:25.468Z,99281.63
2018-03-31T12:06:52.490Z,99276.30
2018-03-31T12:09:19.517Z,99270.92
2018-03-31T12:11:46.570Z,99277.83
2018-03-31T12:14:13.659Z,99271.14
2018-03-31T12:16:40.686Z,99256.25
2018-03-31T12:19:07.767Z,99248.43
2018-03-31T12:21:34.909Z,99242.14
2018-03-31T12:24:01.991Z,99229.28
2018-03-31T12:26:29.014Z,99237.16
2018-03-31T12:28:56.117Z,99236.50
2018-03-31T12:31:23.141Z,99233.34
2018-03-31T12:33:50.169Z,99231.78
2018-03-31T12:36:17.196Z,99231.77
2018-03-31T12:38:44.274Z,99226.66
2018-03-31T12:41:11.290Z,99212.34
2018-03-31T12:43:38.389Z,99209.53
2018-03-31T12:46:05.507Z,99200.76
2018-03-31T12:48:32.538Z,99206.66
2018-03-31T12:50:59.570Z,99200.32
2018-03-31T12:53:26.585Z,99195.17
2018-03-31T12:55:53.669Z,99193.78
2018-03-31T12:58:20.685Z,99192.13
2018-03-31T13:00:47.702Z,99190.88
2018-03-31T13:03:14.727Z,99182.77
2018-03-31T13:05:41.752Z,99171.69
2018-03-31T13:08:08.839Z,99167.55
2018-03-31T13:10:35.873Z,99170.20
2018-03-31T13:13:03.006Z,99168.18
2018-03-31T13:15:30.027Z,99164.38
2018-03-31T13:17:57.047Z,99154.86
2018-03-31T13:20:24.151Z,99165.11
2018-03-31T13:22:51.179Z,99159.24
2018-03-31T13:25:18.209Z,99153.96
2018-03-31T13:27:45.298Z,99156.38
2018-03-31T13:30:12.391Z,99152.83
2018-03-31T13:32:40.379Z,99144.69
2018-03-31T13:35:07.406Z,99143.45
2018-03-31T13:37:34.452Z,99148.97
2018-03-31T13:40:01.470Z,99139.41
2018-03-31T13:42:28.497Z,99139.71
2018-03-31T13:44:55.576Z,99136.03
2018-03-31T13:47:22.662Z,99129.31
2018-03-31T13:49:49.753Z,99126.89
2018-03-31T13:52:16.770Z,99123.02
2018-03-31T13:54:43.803Z,99126.03
2018-03-31T13:57:10.834Z,99112.96
2018-03-31T13:59:37.874Z,99126.14
2018-03-31T14:02:04.897Z,99128.26
2018-03-31T14:04:31.979Z,99114.28
2018-03-31T14:06:59.058Z,99100.37
2018-03-31T14:09:26.127Z,99105.78
2018-03-31T14:11:53.158Z,99102.63
2018-03-31T14:14:20.237Z,99090.35
2018-03-31T14:16:47.265Z,99091.86
2018-03-31T14:19:14.282Z,99096.78
2018-03-31T14:21:41.359Z,99103.56
2018-03-31T14:24:08.440Z,99098.92
2018-03-31T14:26:35.454Z,99098.53
2018-03-31T14:29:02.497Z,99097.11
2018-03-31T14:31:29.515Z,99080.81
2018-03-31T14:33:56.607Z,99091.71
2018-03-31T14:36:23.687Z,99081.05
2018-03-31T14:38:50.770Z,99080.28
2018-03-31T14:41:17.854Z,99076.50
2018-03-31T14:43:44.870Z,99078.27
2018-03-31T14:46:11.894Z,99071.27
2018-03-31T14:48:38.912Z,99061.40
2018-03-31T14:51:06.003Z,99060.25
2018-03-31T14:53:33.096Z,99068.17
2018-03-31T14:56:00.174Z,99059.53
2018-03-31T14:58:27.206Z,99060.22
2018-03-31T15:00:55.162Z,99060.29
2018-03-31T15:03:22.194Z,99066.05
2018-03-31T15:05:49.213Z,99063.58
2018-03-31T15:08:16.313Z,99061.97
2018-03-31T15:10:43.338Z,99049.38
2018-03-31T15:13:10.416Z,99060.27
2018-03-31T15:15:37.433Z,99054.23
2018-03-31T15:18:04.510Z,99056.95
2018-03-31T15:20:31.553Z,99050.28
2018-03-31T15:22:58.572Z,99047.94
2018-03-31T15:25:25.598Z,99050.55
2018-03-31T15:27:52.678Z,99050.44
2018-03-31T15:30:19.801Z,99051.11
2018-03-31T15:32:46.866Z,99049.33
2018-03-31T15:35:13.956Z,99062.08
2018-03-31T15:37:41.053Z,99063.11
2018-03-31T15:40:08.195Z,99059.53
2018-03-31T15:42:35.272Z,99070.34
2018-03-31T15:45:02.359Z,99068.23
2018-03-31T15:47:29.496Z,99058.39
2018-03-31T15:49:56.525Z,99070.67
2018-03-31T15:52:23.541Z,99065.56
2018-03-31T15:54:50.576Z,99056.48
2018-03-31T15:57:17.634Z,99059.02
2018-03-31T15:59:44.727Z,99052.15
2018-03-31T16:02:11.746Z,99051.83
2018-03-31T16:04:38.822Z,99051.70
2018-03-31T16:07:05.848Z,99056.80
2018-03-31T16:09:32.865Z,99044.38
2018-03-31T16:11:59.976Z,99038.45
2018-03-31T16:14:27.059Z,99035.52
2018-03-31T16:16:54.147Z,99030.00
2018-03-31T16:19:21.162Z,99032.00
2018-03-31T16:21:48.250Z,99025.02
2018-03-31T16:24:15.270Z,99041.83
2018-03-31T16:26:42.282Z,99040.36
2018-03-31T16:29:09.310Z,99038.24
2018-03-31T16:31:36.331Z,99037.07
2018-03-31T16:34:03.359Z,99045.61
2018-03-31T16:36:30.494Z,99044.21
2018-03-31T16:38:57.579Z,99047.23
2018-03-31T16:41:24.640Z,99038.76
2018-03-31T16:43:51.718Z,99041.80
2018-03-31T16:46:18.743Z,99034.81
2018-03-31T16:48:45.765Z,99028.02
2018-03-31T16:51:12.817Z,99020.69
2018-03-31T16:53:39.902Z,99013.26
2018-03-31T16:56:07.037Z,99006.62
2018-03-31T16:58:34.066Z,99003.36
2018-03-31T17:01:01.090Z,99002.48
2018-03-31T17:03:28.120Z,98994.87
2018-03-31T17:05:55.298Z,98988.81
2018-03-31T17:08:22.395Z,98992.55
2018-03-31T17:10:49.428Z,98985.58
2018-03-31T17:13:16.503Z,98996.52
2018-03-31T17:15:50.444Z,98980.89
2018-03-31T17:18:17.552Z,98990.41
2018-03-31T17:20:44.584Z,98994.87
2018-03-31T17:23:11.605Z,98979.97
2018-03-31T17:25:38.644Z,98987.58
2018-03-31T17:28:05.797Z,98993.92
2018-03-31T17:30:32.832Z,98985.52
2018-03-31T17:32:59.991Z,98970.48
2018-03-31T17:35:28.141Z,98979.49
2018-03-31T17:37:55.223Z,98971.44
2018-03-31T17:40:22.304Z,98971.69
2018-03-31T17:42:49.395Z,98959.95
2018-03-31T17:45:16.395Z,98955.61
2018-03-31T17:47:43.422Z,98951.62
2018-03-31T17:50:10.450Z,98961.38
2018-03-31T17:52:37.609Z,98962.55
2018-03-31T17:55:04.633Z,98967.09
2018-03-31T17:57:31.730Z,98968.91
2018-03-31T17:59:58.819Z,98956.66
2018-03-31T18:02:25.923Z,98957.92
2018-03-31T18:04:53.043Z,98939.95
2018-03-31T18:07:20.102Z,98940.48
2018-03-31T18:09:47.178Z,98949.78
2018-03-31T18:12:14.208Z,98951.71
2018-03-31T18:14:41.231Z,98938.90
2018-03-31T18:17:08.258Z,98936.42
2018-03-31T18:19:35.282Z,98935.73
2018-03-31T18:22:05.520Z,98922.45
2018-03-31T18:24:32.560Z,98934.72
2018-03-31T18:26:59.646Z,98920.58
2018-03-31T18:29:26.656Z,98943.24
2018-03-31T18:31:53.679Z,98942.07
2018-03-31T18:34:20.743Z,98946.38
2018-03-31T18:36:47.768Z,98934.59
2018-03-31T18:39:14.816Z,98939.66
2018-03-31T18:41:41.837Z,98937.69
2018-03-31T18:44:08.909Z,98932.43
2018-03-31T18:46:35.932Z,98920.34
2018-03-31T18:49:03.012Z,98927.58
2018-03-31T18:51:30.086Z,98928.41
2018-03-31T18:53:57.106Z,98930.66
2018-03-31T18:56:24.130Z,98929.70
2018-03-31T18:58:51.224Z,98923.77
2018-03-31T19:01:18.299Z,98922.16
2018-03-31T19:03:45.313Z,98922.56
2018-03-31T19:06:12.395Z,98909.91
2018-03-31T19:08:39.497Z,98915.42
2018-03-31T19:11:06.528Z,98922.88
2018-03-31T19:13:33.556Z,98916.34
2018-03-31T19:16:00.581Z,98921.71
2018-03-31T19:18:27.662Z,98914.38
2018-03-31T19:20:54.698Z,98913.27
2018-03-31T19:23:21.718Z,98911.03
2018-03-31T19:25:48.857Z,98915.12
2018-03-31T19:28:15.887Z,98911.82
2018-03-31T19:30:48.454Z,98907.12
2018-03-31T19:33:15.532Z,98902.88
2018-03-31T19:35:48.166Z,98907.77
2018-03-31T19:38:15.249Z,98905.92
2018-03-31T19:40:42.334Z,98905.55
2018-03-31T19:43:09.381Z,98899.02
2018-03-31T19:45:36.397Z,98896.19
2018-03-31T19:48:03.483Z,98880.30
2018-03-31T19:50:30.513Z,98869.09
2018-03-31T19:52:57.560Z,98870.73
2018-03-31T19:55:24.661Z,98859.77
2018-03-31T19:57:51.743Z,98855.18
2018-03-31T20:00:18.770Z,98837.59
2018-03-31T20:02:45.786Z,98832.81
2018-03-31T20:05:12.827Z,98836.70
2018-03-31T20:07:39.915Z,98837.27
2018-03-31T20:10:07.013Z,98823.94
2018-03-31T20:12:34.027Z,98816.86
2018-03-31T20:15:01.098Z,98822.40
2018-03-31T20:17:28.121Z,98819.03
2018-03-31T20:19:55.146Z,98808.55
2018-03-31T20:22:22.180Z,98805.70
2018-03-31T20:24:49.301Z,98795.83
2018-03-31T20:27:16.345Z,98792.66
2018-03-31T20:29:43.383Z,98786.30
2018-03-31T20:32:10.541Z,98783.59
2018-03-31T20:34:37.668Z,98781.64
2018-03-31T20:37:04.691Z,98790.48
2018-03-31T20:39:31.721Z,98791.74
2018-03-31T20:41:58.742Z,98789.87
2018-03-31T20:44:25.767Z,98781.63
2018-03-31T20:46:52.790Z,98780.48
2018-03-31T20:49:19.881Z,98786.50
2018-03-31T20:51:46.898Z,98771.64
2018-03-31T20:54:13.965Z,98771.97
2018-03-31T20:56:40.987Z,98756.45
2018-03-31T20:59:08.015Z,98742.20
2018-03-31T21:01:35.074Z,98741.52
2018-03-31T21:04:02.103Z,98744.59
2018-03-31T21:06:29.140Z,98733.19
2018-03-31T21:08:56.223Z,98725.03
2018-03-31T21:11:23.258Z,98712.08
2018-03-31T21:13:50.286Z,98711.48
2018-03-31T21:16:17.327Z,98710.66
2018-03-31T21:18:44.391Z,98709.61
2018-03-31T21:21:11.490Z,98700.41
2018-03-31T21:23:38.509Z,98698.45
2018-03-31T21:26:05.538Z,98699.63
2018-03-31T21:28:32.558Z,98685.78
2018-03-31T21:30:59.578Z,98683.50
2018-03-31T21:33:26.616Z,98669.88
2018-03-31T21:35:53.648Z,98654.60
2018-03-31T21:38:20.673Z,98645.55
2018-03-31T21:40:47.694Z,98645.96
2018-03-31T21:43:14.824Z,98619.02
2018-03-31T21:45:41.902Z,98612.67
2018-03-31T21:48:08.923Z,98592.36
2018-03-31T21:50:36.043Z,98601.69
2018-03-31T21:53:03.039Z,98590.06
2018-03-31T21:55:30.124Z,98586.62
2018-03-31T21:57:57.142Z,98593.98
2018-03-31T22:00:24.204Z,98581.59
2018-03-31T22:02:51.225Z,98573.25
2018-03-31T22:05:18.246Z,98574.75
2018-03-31T22:07:45.263Z,98586.63
2018-03-31T22:10:12.347Z,98566.84
2018-03-31T22:12:39.370Z,98563.01
2018-03-31T22:15:12.006Z,98567.72
2018-03-31T22:17:39.070Z,98577.72
2018-03-31T22:20:06.157Z,98576.70
2018-03-31T22:22:33.191Z,98582.18
2018-03-31T22:25:00.267Z,98570.44
2018-03-31T22:27:27.295Z,98572.62
2018-03-31T22:29:54.314Z,98559.40
2018-03-31T22:32:21.346Z,98556.65
2018-03-31T22:34:48.368Z,98564.52
2018-03-31T22:37:15.454Z,98553.73
2018-03-31T22:39:42.538Z,98563.48
2018-03-31T22:42:09.562Z,98552.09
2018-03-31T22:44:36.648Z,98548.77
2018-03-31T22:47:03.671Z,98553.20
2018-03-31T22:49:30.754Z,98539.35
2018-03-31T22:51:57.833Z,98542.20
2018-03-31T22:54:24.874Z,98524.27
2018-03-31T22:56:51.889Z,98506.34
2018-03-31T22:59:19.030Z,98502.26
2018-03-31T23:01:46.124Z,98503.20
2018-03-31T23:04:13.214Z,98506.78
2018-03-31T23:06:40.246Z,98482.58
2018-03-31T23:09:07.339Z,98489.86
2018-03-31T23:11:34.418Z,98508.45
2018-03-31T23:14:01.442Z,98523.98
2018-03-31T23:16:28.564Z,98504.12
2018-03-31T23:18:55.704Z,98504.56
2018-03-31T23:21:22.817Z,98492.20
2018-03-31T23:23:49.914Z,98481.33
2018-03-31T23:26:16.955Z,98475.35
2018-03-31T23:28:44.030Z,98480.41
2018-03-31T23:31:11.111Z,98462.23
2018-03-31T23:33:38.140Z,98473.05
2018-03-31T23:36:05.171Z,98477.31
2018-03-31T23:38:32.200Z,98479.75
2018-03-31T23:40:59.233Z,98473.36
2018-03-31T23:43:26.286Z,98464.91
2018-03-31T23:45:53.387Z,98473.73
2018-03-31T23:48:20.462Z,98475.16
2018-03-31T23:50:47.486Z,98472.63
2018-03-31T23:53:14.518Z,98467.98
2018-03-31T23:55:41.598Z,98466.50
2018-03-31T23:58:08.677Z,98465.97
